createdAt,value
2023-04-29T00:03:29.900Z,26.74
2023-04-29T00:06:34.645Z,28.24
2023-04-29T00:09:39.523Z,27.08
2023-04-29T00:12:46.971Z,27.17
2023-04-29T00:15:51.669Z,27.66
2023-04-29T00:18:55.842Z,27.78
2023-04-29T00:22:02.402Z,27.39
2023-04-29T00:25:08.201Z,26.82
2023-04-29T00:28:15.018Z,27.01
2023-04-29T00:31:19.499Z,27.44
2023-04-29T00:34:24.880Z,27.63
2023-04-29T00:37:28.704Z,28.42
2023-04-29T00:40:33.038Z,29.00
2023-04-29T00:43:37.922Z,31.19
2023-04-29T00:46:45.320Z,30.92
2023-04-29T00:49:50.143Z,31.89
2023-04-29T00:52:55.066Z,31.65
2023-04-29T00:56:03.822Z,30.19
2023-04-29T00:59:11.030Z,28.96
2023-04-29T01:02:18.385Z,29.05
2023-04-29T01:05:22.763Z,28.68
2023-04-29T01:08:28.002Z,28.33
2023-04-29T01:11:48.008Z,29.11
2023-04-29T01:15:05.674Z,27.32
2023-04-29T01:18:36.246Z,27.21
2023-04-29T01:21:59.417Z,27.59
2023-04-29T01:25:04.026Z,27.49
2023-04-29T01:28:32.194Z,27.36
2023-04-29T01:31:56.891Z,28.91
2023-04-29T01:35:12.129Z,27.79
2023-04-29T01:38:47.194Z,30.51
2023-04-29T01:42:39.930Z,27.10
2023-04-29T01:45:49.034Z,26.56
2023-04-29T01:48:58.455Z,26.19
2023-04-29T01:52:03.297Z,26.68
2023-04-29T01:55:11.905Z,26.76
2023-04-29T01:58:24.811Z,27.88
2023-04-29T02:01:46.595Z,28.57
2023-04-29T02:12:48.121Z,30.85
2023-04-29T02:16:16.135Z,31.75
2023-04-29T02:19:41.384Z,30.43
2023-04-29T02:22:45.927Z,29.32
2023-04-29T02:25:53.643Z,28.79
2023-04-29T02:29:06.965Z,28.28
2023-04-29T02:32:12.971Z,27.77
2023-04-29T02:35:18.451Z,27.52
2023-04-29T02:38:25.235Z,28.03
2023-04-29T02:41:29.983Z,27.77
2023-04-29T02:44:34.544Z,28.13
2023-04-29T02:47:41.826Z,27.71
2023-04-29T02:50:46.070Z,27.78
2023-04-29T02:53:52.082Z,28.72
2023-04-29T02:56:56.887Z,28.41
2023-04-29T03:00:01.782Z,28.70
2023-04-29T03:03:10.561Z,29.48
2023-04-29T03:06:17.625Z,29.79
2023-04-29T03:09:25.026Z,29.69
2023-04-29T03:12:29.614Z,29.97
2023-04-29T03:15:34.137Z,29.25
2023-04-29T03:18:42.358Z,29.03
2023-04-29T03:21:47.008Z,29.72
2023-04-29T03:24:53.729Z,30.34
2023-04-29T03:28:00.880Z,30.37
2023-04-29T03:31:05.821Z,30.16
2023-04-29T03:34:11.444Z,30.59
2023-04-29T03:37:23.803Z,30.71
2023-04-29T03:40:39.932Z,31.11
2023-04-29T03:43:45.085Z,30.70
2023-04-29T03:46:49.498Z,31.40
2023-04-29T03:49:57.205Z,31.68
2023-04-29T03:53:06.893Z,30.53
2023-04-29T03:56:17.542Z,30.52
2023-04-29T03:59:25.498Z,31.45
2023-04-29T04:02:30.409Z,32.56
2023-04-29T04:05:37.545Z,31.96
2023-04-29T04:08:48.554Z,31.44
2023-04-29T04:12:01.805Z,30.98
2023-04-29T04:15:06.852Z,31.37
2023-04-29T04:18:17.105Z,31.36
2023-04-29T04:21:24.220Z,30.61
2023-04-29T04:24:42.458Z,30.44
2023-04-29T04:27:49.542Z,30.23
2023-04-29T04:31:19.018Z,30.10
2023-04-29T04:34:23.317Z,29.66
2023-04-29T04:37:32.773Z,29.95
2023-04-29T04:40:46.938Z,29.19
2023-04-29T04:44:13.235Z,29.30
2023-04-29T04:47:33.459Z,29.72
2023-04-29T04:50:42.833Z,29.27
2023-04-29T04:53:47.458Z,29.48
2023-04-29T04:57:00.191Z,29.79
2023-04-29T05:00:05.725Z,29.78
2023-04-29T05:03:12.640Z,29.72
2023-04-29T05:06:16.958Z,29.77
2023-04-29T05:09:24.335Z,29.94
2023-04-29T05:12:36.122Z,29.69
2023-04-29T05:15:41.435Z,29.53
2023-04-29T05:18:47.437Z,29.82
2023-04-29T05:21:54.805Z,29.67
2023-04-29T05:25:04.024Z,29.58
2023-04-29T05:28:11.465Z,29.51
2023-04-29T05:31:18.837Z,29.75
2023-04-29T05:34:23.251Z,29.87
2023-04-29T05:37:37.664Z,30.06
2023-04-29T05:41:10.654Z,30.49
2023-04-29T05:44:34.520Z,30.78
2023-04-29T05:47:39.219Z,30.61
2023-04-29T05:50:50.487Z,30.84
2023-04-29T05:54:01.152Z,31.13
2023-04-29T05:57:10.753Z,31.42
2023-04-29T06:00:21.669Z,30.31
2023-04-29T06:03:26.275Z,30.86
2023-04-29T06:06:50.802Z,30.97
2023-04-29T06:09:59.996Z,31.42
2023-04-29T06:13:08.491Z,31.76
2023-04-29T06:16:14.305Z,32.09
2023-04-29T06:19:21.947Z,32.42
2023-04-29T06:22:31.520Z,32.19
2023-04-29T06:25:38.633Z,32.76
2023-04-29T06:28:44.688Z,32.78
2023-04-29T06:31:49.770Z,33.05
2023-04-29T06:34:54.116Z,32.89
2023-04-29T06:38:24.833Z,33.20
2023-04-29T06:41:37.882Z,33.03
2023-04-29T06:45:02.396Z,33.61
2023-04-29T06:48:19.824Z,33.25
2023-04-29T06:51:30.991Z,33.24
2023-04-29T06:54:43.269Z,33.57
2023-04-29T06:57:50.669Z,33.62
2023-04-29T07:00:54.745Z,34.21
2023-04-29T07:04:05.041Z,34.78
2023-04-29T07:07:14.259Z,35.04
2023-04-29T07:10:19.690Z,34.81
2023-04-29T07:13:27.694Z,34.78
2023-04-29T07:16:41.895Z,35.21
2023-04-29T07:23:37.494Z,35.50
2023-04-29T07:26:44.240Z,35.99
2023-04-29T07:29:51.089Z,35.90
2023-04-29T07:32:55.896Z,35.77
2023-04-29T07:36:08.023Z,35.94
2023-04-29T07:39:19.177Z,36.50
2023-04-29T07:42:26.627Z,36.24
2023-04-29T07:45:32.816Z,36.72
2023-04-29T07:48:43.735Z,36.56
2023-04-29T07:51:55.628Z,36.64
2023-04-29T07:55:04.977Z,37.06
2023-04-29T07:58:09.414Z,37.11
2023-04-29T08:01:18.248Z,36.94
2023-04-29T08:04:23.566Z,37.44
2023-04-29T08:07:52.139Z,37.07
2023-04-29T08:10:57.932Z,36.99
2023-04-29T08:14:02.519Z,37.10
2023-04-29T08:17:08.349Z,37.59
2023-04-29T08:20:16.074Z,37.49
2023-04-29T08:30:39.746Z,37.73
2023-04-29T08:33:44.410Z,37.66
2023-04-29T08:36:48.978Z,38.22
2023-04-29T08:40:13.005Z,38.19
2023-04-29T08:43:18.850Z,38.26
2023-04-29T08:46:27.195Z,38.65
2023-04-29T08:49:35.061Z,38.58
2023-04-29T08:52:39.217Z,39.07
2023-04-29T08:55:47.666Z,39.40
2023-04-29T08:58:56.257Z,39.11
2023-04-29T09:02:01.343Z,39.19
2023-04-29T09:05:10.423Z,39.38
2023-04-29T09:08:15.081Z,39.91
2023-04-29T09:11:20.687Z,40.10
2023-04-29T09:14:25.361Z,40.65
2023-04-29T09:17:50.100Z,40.39
2023-04-29T09:20:55.195Z,40.54
2023-04-29T09:24:02.459Z,40.26
2023-04-29T09:27:07.528Z,40.61
2023-04-29T09:30:19.107Z,40.90
2023-04-29T09:33:30.709Z,41.10
2023-04-29T09:36:54.006Z,41.11
2023-04-29T09:40:00.531Z,41.38
2023-04-29T09:43:07.364Z,41.76
2023-04-29T09:46:17.807Z,41.56
2023-04-29T09:49:30.827Z,41.15
2023-04-29T09:52:43.126Z,41.48
2023-04-29T09:56:10.966Z,42.38
2023-04-29T09:59:15.873Z,41.93
2023-04-29T10:02:20.751Z,42.08
2023-04-29T10:05:31.122Z,42.21
2023-04-29T10:08:36.279Z,42.23
2023-04-29T10:11:45.163Z,42.69
2023-04-29T10:15:06.872Z,42.54
2023-04-29T10:18:35.369Z,43.00
2023-04-29T10:21:39.992Z,42.91
2023-04-29T10:24:45.413Z,43.19
2023-04-29T10:27:51.301Z,43.79
2023-04-29T10:30:57.420Z,43.11
2023-04-29T10:34:04.421Z,43.26
2023-04-29T10:37:12.276Z,43.52
2023-04-29T10:40:19.461Z,43.54
2023-04-29T10:43:28.159Z,43.26
2023-04-29T10:46:32.783Z,43.01
2023-04-29T10:49:37.686Z,43.74
2023-04-29T10:52:54.039Z,44.12
2023-04-29T10:56:06.682Z,43.40
2023-04-29T10:59:18.597Z,42.83
2023-04-29T11:02:28.259Z,41.77
2023-04-29T11:05:39.448Z,42.66
2023-04-29T11:08:44.516Z,43.00
2023-04-29T11:12:04.090Z,42.12
2023-04-29T11:15:12.003Z,42.00
2023-04-29T11:18:16.872Z,41.97
2023-04-29T11:21:21.862Z,42.35
2023-04-29T11:24:26.784Z,42.15
2023-04-29T11:27:36.480Z,42.32
2023-04-29T11:30:41.840Z,42.49
2023-04-29T11:33:48.490Z,42.61
2023-04-29T11:36:55.292Z,42.43
2023-04-29T11:40:04.702Z,42.92
2023-04-29T11:43:10.509Z,43.23
2023-04-29T11:46:15.964Z,43.21
2023-04-29T11:49:21.082Z,42.96
2023-04-29T11:52:25.899Z,43.03
2023-04-29T11:55:30.655Z,42.56
2023-04-29T11:58:37.815Z,42.76
2023-04-29T12:01:43.739Z,42.41
2023-04-29T12:04:50.500Z,43.14
2023-04-29T12:07:58.364Z,43.16
2023-04-29T12:11:03.086Z,43.72
2023-04-29T12:14:11.107Z,43.38
2023-04-29T12:17:19.951Z,44.77
2023-04-29T12:20:25.221Z,44.00
2023-04-29T12:23:32.836Z,44.27
2023-04-29T12:26:39.889Z,43.91
2023-04-29T12:29:44.304Z,43.98
2023-04-29T12:32:49.953Z,44.56
2023-04-29T12:35:57.254Z,44.36
2023-04-29T12:39:02.190Z,44.09
2023-04-29T12:42:07.803Z,44.67
2023-04-29T12:45:29.781Z,44.59
2023-04-29T12:48:35.829Z,44.88
2023-04-29T12:51:40.732Z,44.92
2023-04-29T12:54:45.480Z,44.97
2023-04-29T12:57:50.265Z,45.17
2023-04-29T13:00:54.431Z,45.15
2023-04-29T13:04:00.434Z,45.72
2023-04-29T13:07:05.907Z,45.40
2023-04-29T13:10:13.348Z,45.74
2023-04-29T13:13:17.610Z,45.79
2023-04-29T13:16:22.095Z,46.21
2023-04-29T13:19:43.453Z,45.85
2023-04-29T13:22:58.412Z,45.99
2023-04-29T13:26:03.087Z,45.96
2023-04-29T13:29:10.071Z,46.02
2023-04-29T13:32:18.107Z,46.56
2023-04-29T13:35:23.111Z,46.59
2023-04-29T13:41:36.423Z,46.16
2023-04-29T13:44:52.649Z,46.14
2023-04-29T13:48:08.478Z,46.16
2023-04-29T13:51:52.584Z,46.35
2023-04-29T13:58:39.893Z,46.17
2023-04-29T14:02:08.080Z,46.67
2023-04-29T14:04:42.801Z,46.36
2023-04-29T14:07:48.450Z,46.14
2023-04-29T14:10:53.017Z,46.41
2023-04-29T14:13:57.489Z,46.16
2023-04-29T14:17:02.407Z,46.02
2023-04-29T14:20:10.342Z,46.38
2023-04-29T14:23:15.318Z,46.80
2023-04-29T14:29:26.793Z,46.77
2023-04-29T14:32:31.046Z,47.49
2023-04-29T14:35:35.615Z,48.14
2023-04-29T14:38:40.293Z,50.31
2023-04-29T14:41:45.129Z,50.07
2023-04-29T14:44:55.267Z,50.49
2023-04-29T14:48:00.405Z,50.65
2023-04-29T14:51:10.183Z,51.47
2023-04-29T14:54:14.776Z,51.85
2023-04-29T14:57:19.725Z,52.23
2023-04-29T15:00:26.940Z,54.01
2023-04-29T15:03:31.602Z,54.35
2023-04-29T15:06:36.639Z,54.77
2023-04-29T15:09:44.036Z,54.47
2023-04-29T15:12:48.214Z,54.69
2023-04-29T15:15:52.934Z,54.37
2023-04-29T15:18:57.041Z,54.88
2023-04-29T15:22:04.100Z,54.72
2023-04-29T15:25:12.404Z,55.19
2023-04-29T15:28:19.290Z,55.96
2023-04-29T15:31:25.100Z,55.92
2023-04-29T15:34:32.873Z,57.40
2023-04-29T15:37:37.884Z,58.07
2023-04-29T15:40:42.250Z,59.39
2023-04-29T15:43:46.621Z,59.74
2023-04-29T15:46:51.192Z,60.09
2023-04-29T15:49:56.913Z,60.46
2023-04-29T15:53:01.465Z,60.79
2023-04-29T15:56:06.687Z,61.45
2023-04-29T15:59:11.516Z,61.93
2023-04-29T16:02:16.221Z,62.46
2023-04-29T16:05:21.230Z,62.99
2023-04-29T16:08:25.941Z,65.37
2023-04-29T16:11:30.688Z,66.17
2023-04-29T16:14:35.330Z,65.04
2023-04-29T16:17:40.048Z,65.68
2023-04-29T16:20:45.919Z,66.31
2023-04-29T16:23:51.879Z,69.39
2023-04-29T16:27:00.197Z,68.98
2023-04-29T16:30:05.034Z,69.00
2023-04-29T16:33:09.334Z,70.02
2023-04-29T16:36:14.476Z,70.31
2023-04-29T16:39:18.869Z,68.81
2023-04-29T16:42:23.626Z,69.57
2023-04-29T16:45:31.420Z,69.24
2023-04-29T16:48:35.876Z,70.80
2023-04-29T16:51:40.056Z,71.54
2023-04-29T16:54:44.780Z,70.38
2023-04-29T16:57:49.366Z,69.46
2023-04-29T17:00:58.073Z,70.44
2023-04-29T17:04:09.959Z,69.81
2023-04-29T17:07:23.063Z,71.44
2023-04-29T17:10:29.475Z,71.12
2023-04-29T17:13:34.077Z,70.15
2023-04-29T17:16:38.607Z,69.09
2023-04-29T17:19:43.140Z,69.85
2023-04-29T17:22:52.045Z,70.95
2023-04-29T17:25:57.968Z,71.84
2023-04-29T17:29:01.561Z,74.03
2023-04-29T17:32:13.451Z,71.84
2023-04-29T17:35:17.809Z,71.41
2023-04-29T17:38:22.340Z,71.87
2023-04-29T17:41:26.738Z,73.16
2023-04-29T17:44:31.373Z,72.55
2023-04-29T17:47:38.235Z,72.16
2023-04-29T17:50:42.907Z,71.53
2023-04-29T17:53:47.567Z,72.33
2023-04-29T17:56:52.244Z,73.04
2023-04-29T17:59:57.114Z,73.10
2023-04-29T18:03:06.731Z,73.84
2023-04-29T18:06:11.230Z,72.73
2023-04-29T18:09:16.092Z,72.91
2023-04-29T18:12:20.817Z,72.90
2023-04-29T18:15:27.953Z,72.42
2023-04-29T18:18:32.668Z,71.67
2023-04-29T18:21:36.888Z,72.72
2023-04-29T18:24:45.337Z,74.04
2023-04-29T18:27:59.803Z,75.07
2023-04-29T18:31:19.209Z,74.44
2023-04-29T18:34:23.821Z,74.52
2023-04-29T18:37:30.576Z,74.59
2023-04-29T18:40:37.982Z,73.04
2023-04-29T18:43:42.517Z,76.02
2023-04-29T18:46:47.198Z,73.74
2023-04-29T18:49:51.871Z,74.66
2023-04-29T18:52:59.582Z,75.82
2023-04-29T18:56:04.258Z,75.98
2023-04-29T18:59:10.462Z,75.60
2023-04-29T19:02:18.096Z,74.97
2023-04-29T19:05:25.824Z,74.39
2023-04-29T19:08:32.202Z,75.15
2023-04-29T19:11:41.633Z,75.39
2023-04-29T19:14:46.381Z,74.75
2023-04-29T19:17:51.405Z,75.67
2023-04-29T19:20:56.906Z,74.62
2023-04-29T19:24:01.516Z,76.93
2023-04-29T19:27:07.086Z,77.32
2023-04-29T19:30:11.839Z,76.89
2023-04-29T19:33:16.107Z,75.92
2023-04-29T19:36:20.862Z,74.76
2023-04-29T19:39:27.467Z,75.10
2023-04-29T19:42:34.839Z,76.66
2023-04-29T19:45:38.839Z,75.54
2023-04-29T19:48:43.911Z,75.11
2023-04-29T19:51:48.716Z,77.14
2023-04-29T19:54:53.033Z,79.22
2023-04-29T19:57:57.609Z,75.44
2023-04-29T20:01:02.110Z,76.02
2023-04-29T20:04:06.687Z,78.44
2023-04-29T20:07:11.704Z,78.60
2023-04-29T20:10:16.380Z,76.80
2023-04-29T20:13:27.603Z,79.23
2023-04-29T20:16:35.044Z,79.10
2023-04-29T20:19:41.912Z,78.71
2023-04-29T20:22:46.704Z,81.89
2023-04-29T20:25:51.651Z,83.38
2023-04-29T20:28:58.273Z,84.84
2023-04-29T20:32:05.221Z,85.47
2023-04-29T20:35:27.880Z,84.47
2023-04-29T20:38:36.135Z,82.79
2023-04-29T20:41:40.363Z,82.90
2023-04-29T20:44:44.819Z,83.65
2023-04-29T20:47:49.266Z,85.66
2023-04-29T20:50:54.352Z,82.73
2023-04-29T20:54:03.388Z,84.87
2023-04-29T20:57:10.873Z,85.87
2023-04-29T21:00:16.932Z,86.45
2023-04-29T21:03:27.216Z,86.24
2023-04-29T21:06:32.951Z,85.67
2023-04-29T21:09:37.717Z,85.01
2023-04-29T21:12:45.384Z,84.42
2023-04-29T21:15:53.247Z,83.72
2023-04-29T21:18:57.567Z,85.03
2023-04-29T21:22:02.285Z,85.62
2023-04-29T21:25:07.150Z,84.04
2023-04-29T21:28:22.381Z,83.62
2023-04-29T21:31:27.260Z,81.69
2023-04-29T21:34:32.158Z,80.33
2023-04-29T21:37:36.406Z,83.65
2023-04-29T21:40:45.161Z,84.62
2023-04-29T21:43:50.404Z,84.56
2023-04-29T21:46:55.067Z,84.55
2023-04-29T21:50:00.159Z,84.47
2023-04-29T21:53:04.599Z,84.55
2023-04-29T21:56:11.803Z,84.51
2023-04-29T21:59:17.752Z,85.65
2023-04-29T22:02:38.733Z,83.49
2023-04-29T22:05:48.810Z,81.19
2023-04-29T22:08:53.699Z,82.79
2023-04-29T22:11:58.239Z,82.71
2023-04-29T22:15:03.402Z,81.26
2023-04-29T22:18:11.927Z,81.15
2023-04-29T22:21:32.494Z,79.99
2023-04-29T22:24:37.096Z,80.01
2023-04-29T22:27:41.679Z,79.65
2023-04-29T22:30:49.316Z,80.49
2023-04-29T22:33:54.092Z,79.82
2023-04-29T22:36:58.865Z,80.48
2023-04-29T22:40:03.640Z,78.59
2023-04-29T22:43:10.528Z,78.32
2023-04-29T22:46:15.193Z,78.08
2023-04-29T22:49:21.724Z,79.40
2023-04-29T22:52:27.898Z,78.43
2023-04-29T22:55:34.372Z,78.50
2023-04-29T22:58:38.419Z,76.98
2023-04-29T23:01:42.837Z,78.12
2023-04-29T23:05:08.913Z,77.29
2023-04-29T23:12:00.194Z,77.76
2023-04-29T23:15:09.053Z,76.03
2023-04-29T23:18:15.446Z,75.68
2023-04-29T23:21:23.073Z,75.27
2023-04-29T23:24:27.595Z,75.87
2023-04-29T23:27:32.254Z,75.38
2023-04-29T23:30:40.116Z,76.49
2023-04-29T23:33:47.010Z,76.01
2023-04-29T23:36:51.536Z,76.02
2023-04-29T23:39:58.680Z,74.98
2023-04-29T23:43:05.966Z,75.23
2023-04-29T23:46:11.115Z,75.10
2023-04-29T23:49:17.413Z,75.55
2023-04-29T23:52:21.656Z,74.77
2023-04-29T23:55:25.902Z,75.83
2023-04-29T23:58:30.749Z,76.80
